Time;durP1;ratioP1;P1;durP2;ratioP2;P2;SDS_P1;SDS_P2;PMS_P1;PMS_P2;Temp;Humidity;BMP_temperature;BMP_pressure;BME280_temperature;BME280_humidity;BME280_pressure;Samples;Min_cycle;Max_cycle;Signal;HPM_P1;HPM_P2
2022/09/03 00:04:31;;;;;;;;;;;;;;;22.67;44.59;95427.66;10242285;28;3235;-47
2022/09/03 00:09:36;;;;;;;;;;;;;;;22.65;44.33;95436.66;10246840;28;3188;-50
2022/09/03 00:14:48;;;;;;;;;;;;;;;22.62;43.95;95431.97;10257725;28;2318;-48
2022/09/03 00:19:53;;;;;;;;;;;;;;;22.65;44.69;95430.56;10244716;28;3131;-52
2022/09/03 00:24:54;;;;;;;;;;;;;;;22.63;43.94;95440.66;10244987;28;3121;-49
2022/09/03 00:30:02;;;;;;;;;;;;;;;22.62;44.26;95437.25;10260265;28;2309;-48
2022/09/03 00:35:03;;;;;;;;;;;;;;;22.62;44.17;95431.97;10252003;28;3174;-50
2022/09/03 00:40:06;;;;;;;;;;;;;;;22.61;44.26;95430.38;10255254;28;3298;-49
2022/09/03 00:45:30;;;;;;;;;;;;;;;22.62;44.16;95421.41;10255915;28;2310;-47
2022/09/03 00:50:30;;;;;;;;;;;;;;;22.62;44.04;95426.69;10246184;28;3229;-47
2022/09/03 00:55:30;;;;;;;;;;;;;;;22.61;44.12;95424.31;10263964;28;3148;-48
2022/09/03 01:00:31;;;;;;;;;;;;;;;22.60;44.08;95425.41;10242960;28;2474;-46
2022/09/03 01:05:40;;;;;;;;;;;;;;;22.56;43.76;95430.47;10245215;28;3187;-47
2022/09/03 01:10:44;;;;;;;;;;;;;;;22.56;43.99;95432.31;10247126;28;3180;-47
2022/09/03 01:15:51;;;;;;;;;;;;;;;22.54;43.95;95429.97;10255096;28;3264;-50
2022/09/03 01:20:57;;;;;;;;;;;;;;;22.56;43.87;95424.41;10247780;28;3303;-51
2022/09/03 01:26:06;;;;;;;;;;;;;;;22.54;43.71;95427.34;10245552;28;2316;-46
2022/09/03 01:31:15;;;;;;;;;;;;;;;22.52;43.58;95426.81;10246617;28;2294;-46
2022/09/03 01:36:19;;;;;;;;;;;;;;;22.49;43.83;95422.13;10259511;28;3214;-47
2022/09/03 01:46:49;;;;;;;;;;;;;;;22.47;43.72;95424.28;10260952;28;2397;-53
2022/09/03 01:51:58;;;;;;;;;;;;;;;22.49;43.89;95418.72;10244765;28;3271;-48
2022/09/03 01:57:19;;;;;;;;;;;;;;;22.50;44.05;95422.94;10254416;28;3211;-46
2022/09/03 02:02:20;;;;;;;;;;;;;;;22.49;44.06;95413.44;10241282;28;2298;-49
2022/09/03 02:07:20;;;;;;;;;;;;;;;22.50;43.91;95415.00;10238534;28;2415;-49
2022/09/03 02:12:21;;;;;;;;;;;;;;;22.50;43.95;95397.28;10242990;28;3307;-46
2022/09/03 02:17:22;;;;;;;;;;;;;;;22.50;44.09;95396.50;10238952;28;2314;-51
2022/09/03 02:22:22;;;;;;;;;;;;;;;22.51;44.02;95400.72;10238126;28;3161;-49
2022/09/03 02:27:22;;;;;;;;;;;;;;;22.49;43.95;95408.94;10245005;28;3127;-49
2022/09/03 02:32:23;;;;;;;;;;;;;;;22.46;43.93;95416.66;10256331;28;3259;-46
2022/09/03 02:37:23;;;;;;;;;;;;;;;22.46;43.87;95414.78;10257480;28;3230;-49
2022/09/03 02:42:23;;;;;;;;;;;;;;;22.46;44.02;95417.44;10240720;28;2313;-46
2022/09/03 02:47:23;;;;;;;;;;;;;;;22.48;43.76;95417.16;10243829;28;3107;-50
2022/09/03 02:52:24;;;;;;;;;;;;;;;22.44;43.74;95426.75;10243594;28;3171;-50
2022/09/03 02:57:24;;;;;;;;;;;;;;;22.43;43.83;95418.03;10245968;28;3254;-50
2022/09/03 03:02:25;;;;;;;;;;;;;;;22.43;43.73;95401.41;10242464;28;2349;-48
2022/09/03 03:07:25;;;;;;;;;;;;;;;22.42;43.39;95405.88;10240285;28;3175;-52
2022/09/03 03:12:26;;;;;;;;;;;;;;;22.39;43.59;95411.78;10260348;28;3721;-48
2022/09/03 03:17:27;;;;;;;;;;;;;;;22.37;43.82;95405.22;10254081;28;3215;-46
2022/09/03 03:22:27;;;;;;;;;;;;;;;22.39;43.93;95413.63;10247719;28;2382;-46
2022/09/03 03:27:28;;;;;;;;;;;;;;;22.37;43.85;95407.84;10250035;28;2271;-49
2022/09/03 03:32:28;;;;;;;;;;;;;;;22.38;43.88;95404.91;10247517;28;3161;-51
2022/09/03 03:37:29;;;;;;;;;;;;;;;22.39;43.78;95410.97;10253038;28;3240;-50
2022/09/03 03:42:31;;;;;;;;;;;;;;;22.38;43.84;95422.63;10246157;28;2327;-47
2022/09/03 03:47:32;;;;;;;;;;;;;;;22.34;43.67;95422.41;10251404;28;3102;-46
2022/09/03 03:52:32;;;;;;;;;;;;;;;22.33;43.83;95428.00;10248973;28;3171;-46
2022/09/03 03:57:32;;;;;;;;;;;;;;;22.30;43.86;95421.44;10248384;28;3330;-47
2022/09/03 04:02:33;;;;;;;;;;;;;;;22.28;43.90;95412.22;10244306;28;3166;-49
2022/09/03 04:07:33;;;;;;;;;;;;;;;22.25;43.72;95408.34;10255870;28;3159;-46
2022/09/03 04:12:33;;;;;;;;;;;;;;;22.25;43.73;95402.28;10244801;28;2336;-50
2022/09/03 04:17:33;;;;;;;;;;;;;;;22.24;43.88;95408.59;10250702;28;3258;-47
2022/09/03 04:22:34;;;;;;;;;;;;;;;22.22;43.93;95416.81;10246219;28;2344;-49
2022/09/03 04:27:34;;;;;;;;;;;;;;;22.22;43.88;95410.75;10251313;28;3225;-50
2022/09/03 04:32:53;;;;;;;;;;;;;;;22.20;43.59;95420.81;10240628;28;2413;-51
2022/09/03 04:37:54;;;;;;;;;;;;;;;22.20;43.99;95418.97;10252875;28;2288;-46
2022/09/03 04:42:58;;;;;;;;;;;;;;;22.20;43.84;95429.53;10244983;28;3264;-46
2022/09/03 04:47:59;;;;;;;;;;;;;;;22.20;43.67;95441.94;10248978;28;3218;-51
2022/09/03 04:52:59;;;;;;;;;;;;;;;22.19;43.91;95433.28;10244710;28;3210;-49
2022/09/03 04:57:59;;;;;;;;;;;;;;;22.19;43.71;95432.47;10247795;28;2269;-48
2022/09/03 05:03:00;;;;;;;;;;;;;;;22.19;43.84;95445.69;10259516;28;3190;-49
2022/09/03 05:08:00;;;;;;;;;;;;;;;22.19;44.05;95451.75;10247691;28;2426;-47
2022/09/03 05:13:01;;;;;;;;;;;;;;;22.20;43.88;95445.38;10251595;28;3372;-45
2022/09/03 05:18:02;;;;;;;;;;;;;;;22.23;44.22;95454.59;10259543;28;3223;-48
2022/09/03 05:23:02;;;;;;;;;;;;;;;22.31;44.23;95456.56;10243003;28;3189;-51
2022/09/03 05:28:04;;;;;;;;;;;;;;;22.33;43.72;95471.03;10259914;28;3153;-45
2022/09/03 05:33:04;;;;;;;;;;;;;;;22.32;44.16;95482.66;10242910;28;2323;-45
2022/09/03 05:38:06;;;;;;;;;;;;;;;22.32;44.05;95503.78;10244421;28;3167;-49
2022/09/03 05:43:06;;;;;;;;;;;;;;;22.30;43.84;95494.56;10248544;28;2370;-50
2022/09/03 05:48:06;;;;;;;;;;;;;;;22.30;44.28;95482.16;10248156;28;3182;-47
2022/09/03 05:53:07;;;;;;;;;;;;;;;22.32;43.91;95495.84;10240365;28;3259;-48
2022/09/03 05:58:07;;;;;;;;;;;;;;;22.33;44.22;95484.25;10244593;28;3194;-46
2022/09/03 06:03:07;;;;;;;;;;;;;;;22.36;44.23;95494.19;10244565;28;3202;-46
2022/09/03 06:08:08;;;;;;;;;;;;;;;22.33;44.09;95504.56;10245927;28;3115;-45
2022/09/03 06:13:08;;;;;;;;;;;;;;;22.27;43.95;95495.97;10244731;28;3404;-46
2022/09/03 06:18:09;;;;;;;;;;;;;;;22.27;44.14;95497.81;10261371;28;2399;-46
2022/09/03 06:23:09;;;;;;;;;;;;;;;22.27;44.06;95495.16;10244974;28;3166;-46
2022/09/03 06:28:10;;;;;;;;;;;;;;;22.30;43.90;95499.84;10243454;28;3182;-49
2022/09/03 06:33:10;;;;;;;;;;;;;;;22.30;44.17;95500.66;10237216;28;3151;-48
2022/09/03 06:38:11;;;;;;;;;;;;;;;22.27;44.05;95503.88;10240528;28;2277;-48
2022/09/03 06:43:11;;;;;;;;;;;;;;;22.24;44.00;95499.16;10242055;28;3167;-51
2022/09/03 06:48:13;;;;;;;;;;;;;;;22.24;43.49;95509.72;10242169;28;3115;-45
2022/09/03 06:53:13;;;;;;;;;;;;;;;22.25;43.78;95529.00;10233064;28;3166;-51
2022/09/03 06:58:13;;;;;;;;;;;;;;;22.27;44.12;95525.00;10242245;28;2265;-50
2022/09/03 07:03:16;;;;;;;;;;;;;;;22.31;44.07;95536.56;10238033;28;3154;-50
2022/09/03 07:08:16;;;;;;;;;;;;;;;22.32;44.17;95532.84;10244290;28;2320;-49
2022/09/03 07:13:17;;;;;;;;;;;;;;;22.33;44.09;95536.25;10242612;28;3345;-48
2022/09/03 07:18:18;;;;;;;;;;;;;;;22.33;44.40;95528.34;10242178;28;2369;-48
2022/09/03 07:23:18;;;;;;;;;;;;;;;22.33;44.34;95533.63;10243588;28;2493;-50
2022/09/03 07:28:18;;;;;;;;;;;;;;;22.32;44.28;95537.31;10240146;28;2345;-48
2022/09/03 07:33:18;;;;;;;;;;;;;;;22.33;44.41;95541.53;10237677;28;2406;-48
2022/09/03 07:38:19;;;;;;;;;;;;;;;22.33;44.50;95531.78;10241848;28;3254;-50
2022/09/03 07:43:20;;;;;;;;;;;;;;;22.33;44.52;95538.91;10237515;28;3251;-50
2022/09/03 07:48:21;;;;;;;;;;;;;;;22.32;44.44;95530.19;10241901;28;2418;-50
2022/09/03 07:53:21;;;;;;;;;;;;;;;22.33;44.57;95536.25;10237984;28;3297;-48
2022/09/03 07:58:24;;;;;;;;;;;;;;;22.33;44.53;95533.63;10252152;28;3190;-49
2022/09/03 08:03:24;;;;;;;;;;;;;;;22.34;44.24;95541.25;10244832;28;3345;-47
2022/09/03 08:08:25;;;;;;;;;;;;;;;22.34;44.59;95543.13;10250027;28;3317;-50
2022/09/03 08:13:25;;;;;;;;;;;;;;;22.35;44.40;95542.81;10246451;28;3338;-49
2022/09/03 08:18:26;;;;;;;;;;;;;;;22.35;44.71;95539.41;10249896;28;3334;-50
2022/09/03 08:23:27;;;;;;;;;;;;;;;22.35;44.38;95545.47;10242943;28;2604;-46
2022/09/03 08:28:27;;;;;;;;;;;;;;;22.35;44.65;95548.09;10250004;28;3378;-51
2022/09/03 08:33:37;;;;;;;;;;;;;;;22.37;44.67;95556.53;10241103;28;3297;-46
2022/09/03 08:38:38;;;;;;;;;;;;;;;22.36;44.51;95549.66;10247954;28;3390;-48
2022/09/03 08:43:44;;;;;;;;;;;;;;;22.37;44.85;95553.88;10242120;28;3411;-47
2022/09/03 08:48:45;;;;;;;;;;;;;;;22.39;44.94;95553.59;10259881;28;3272;-46
2022/09/03 08:53:47;;;;;;;;;;;;;;;22.39;44.76;95549.09;10252853;28;3308;-48
2022/09/03 08:58:48;;;;;;;;;;;;;;;22.31;44.70;95544.47;10255216;28;3280;-49
2022/09/03 09:04:07;;;;;;;;;;;;;;;22.32;44.96;95543.38;10243080;28;3219;-44
2022/09/03 09:09:24;;;;;;;;;;;;;;;22.38;44.82;95539.59;10240713;28;3325;-49
2022/09/03 09:14:24;;;;;;;;;;;;;;;22.39;45.26;95533.25;10260198;28;2388;-45
2022/09/03 09:19:40;;;;;;;;;;;;;;;22.42;44.83;95537.94;10242994;28;2539;-44
2022/09/03 09:24:41;;;;;;;;;;;;;;;22.42;45.06;95523.97;10243927;28;2456;-44
2022/09/03 09:29:42;;;;;;;;;;;;;;;22.39;44.96;95519.25;10241367;28;3392;-45
2022/09/03 09:34:43;;;;;;;;;;;;;;;22.39;45.40;95517.41;10243368;28;3331;-48
2022/09/03 09:39:52;;;;;;;;;;;;;;;22.41;45.41;95514.47;10242091;28;3347;-49
2022/09/03 09:44:53;;;;;;;;;;;;;;;22.40;45.71;95513.69;10240913;28;3443;-45
2022/09/03 09:49:54;;;;;;;;;;;;;;;22.46;45.66;95501.94;10244054;28;3681;-47
2022/09/03 09:55:06;;;;;;;;;;;;;;;22.50;45.63;95507.44;10243856;28;2481;-43
2022/09/03 10:00:11;;;;;;;;;;;;;;;22.53;45.88;95520.06;10243797;28;3713;-45
2022/09/03 10:05:18;;;;;;;;;;;;;;;22.53;46.03;95512.94;10259729;28;3350;-45
2022/09/03 10:10:19;;;;;;;;;;;;;;;22.53;46.08;95512.94;10254033;28;2510;-46
2022/09/03 10:15:36;;;;;;;;;;;;;;;22.53;46.18;95507.66;10255798;28;3302;-45
2022/09/03 10:20:57;;;;;;;;;;;;;;;22.56;46.03;95514.22;10241218;28;2571;-45
2022/09/03 10:26:28;;;;;;;;;;;;;;;22.54;46.09;95511.06;10237036;28;3294;-45
2022/09/03 10:31:47;;;;;;;;;;;;;;;22.54;46.04;95506.59;10242538;28;3366;-44
2022/09/03 10:36:53;;;;;;;;;;;;;;;22.55;46.26;95515.28;10241277;28;2467;-47
2022/09/03 10:41:58;;;;;;;;;;;;;;;22.56;46.02;95516.84;10255675;28;3350;-47
2022/09/03 10:47:28;;;;;;;;;;;;;;;22.54;46.23;95503.94;10241784;28;2476;-44
2022/09/03 10:52:48;;;;;;;;;;;;;;;22.53;46.00;95491.78;10202830;28;3286;-48
2022/09/03 10:57:51;;;;;;;;;;;;;;;22.56;46.15;95491.22;10245021;28;3337;-44
2022/09/03 11:02:52;;;;;;;;;;;;;;;22.56;46.14;95480.66;10241963;28;3671;-46
2022/09/03 11:07:59;;;;;;;;;;;;;;;22.58;46.19;95491.75;10248722;28;2605;-43
2022/09/03 11:12:59;;;;;;;;;;;;;;;22.58;45.91;95499.69;10254380;28;2469;-43
2022/09/03 11:18:02;;;;;;;;;;;;;;;22.58;45.95;95483.03;10243754;28;3431;-44
2022/09/03 11:23:03;;;;;;;;;;;;;;;22.58;46.12;95469.81;10241656;28;3306;-49
2022/09/03 11:28:10;;;;;;;;;;;;;;;22.58;46.13;95460.03;10239589;28;2527;-46
2022/09/03 11:33:16;;;;;;;;;;;;;;;22.59;46.17;95466.09;10258799;28;3304;-45
2022/09/03 11:38:17;;;;;;;;;;;;;;;22.59;46.21;95463.44;10263193;28;3351;-47
2022/09/03 11:43:23;;;;;;;;;;;;;;;22.60;46.27;95465.81;10250181;28;2456;-48
2022/09/03 11:48:35;;;;;;;;;;;;;;;22.59;46.25;95472.16;10249470;28;3246;-46
2022/09/03 11:53:35;;;;;;;;;;;;;;;22.62;46.11;95466.31;10245015;28;3453;-46
2022/09/03 11:58:36;;;;;;;;;;;;;;;22.62;46.47;95458.38;10249206;28;3389;-46
2022/09/03 12:03:40;;;;;;;;;;;;;;;22.63;46.26;95449.38;10248678;28;3412;-46
2022/09/03 12:08:44;;;;;;;;;;;;;;;22.64;46.28;95439.59;10249280;28;3332;-47
2022/09/03 12:13:50;;;;;;;;;;;;;;;22.67;46.53;95443.50;10244220;28;3427;-45
2022/09/03 12:18:54;;;;;;;;;;;;;;;22.62;46.70;95441.75;10259193;28;3329;-48
2022/09/03 12:23:55;;;;;;;;;;;;;;;22.67;46.68;95438.97;10249100;28;3339;-44
2022/09/03 12:28:55;;;;;;;;;;;;;;;22.65;46.86;95441.94;10250190;28;3382;-44
2022/09/03 12:33:59;;;;;;;;;;;;;;;22.66;48.14;95437.44;10261155;28;3383;-43
2022/09/03 12:39:07;;;;;;;;;;;;;;;22.76;47.67;95425.88;10243844;28;3253;-42
2022/09/03 12:44:09;;;;;;;;;;;;;;;22.80;47.57;95424.22;10251400;28;3310;-44
2022/09/03 12:49:13;;;;;;;;;;;;;;;22.76;47.69;95423.22;10251310;28;2592;-45
2022/09/03 12:54:14;;;;;;;;;;;;;;;22.74;47.59;95415.59;10245574;28;3314;-43
2022/09/03 12:59:16;;;;;;;;;;;;;;;22.79;47.15;95420.00;10249556;28;3332;-43
2022/09/03 13:04:18;;;;;;;;;;;;;;;22.83;47.04;95410.41;10263736;28;2615;-42
2022/09/03 13:09:19;;;;;;;;;;;;;;;22.83;47.22;95402.50;10248910;28;3353;-43
2022/09/03 13:14:19;;;;;;;;;;;;;;;22.84;46.77;95402.19;10247610;28;3463;-43
2022/09/03 13:19:39;;;;;;;;;;;;;;;22.80;47.17;95408.34;10247983;28;3408;-44
2022/09/03 13:24:42;;;;;;;;;;;;;;;22.79;46.99;95414.72;10242983;28;2468;-44
2022/09/03 13:29:45;;;;;;;;;;;;;;;22.80;46.88;95421.56;10247475;28;2468;-46
2022/09/03 13:34:53;;;;;;;;;;;;;;;22.84;46.98;95425.19;10254802;28;2433;-45
2022/09/03 13:39:56;;;;;;;;;;;;;;;22.88;46.81;95429.59;10256030;28;3313;-43
2022/09/03 13:44:59;;;;;;;;;;;;;;;22.90;46.98;95434.56;10257778;28;2460;-43
2022/09/03 13:55:30;;;;;;;;;;;;;;;22.87;47.05;95424.59;10239714;28;3513;-46
2022/09/03 14:00:33;;;;;;;;;;;;;;;22.87;47.00;95427.25;10257220;28;3305;-47
2022/09/03 14:05:55;;;;;;;;;;;;;;;22.84;46.99;95428.63;10257465;28;2492;-43
2022/09/03 14:11:12;;;;;;;;;;;;;;;22.84;47.32;95441.81;10240784;28;3333;-45
2022/09/03 14:16:30;;;;;;;;;;;;;;;22.85;47.06;95450.53;10240979;28;3350;-45
2022/09/03 14:21:41;;;;;;;;;;;;;;;22.84;47.28;95433.09;10256684;28;2606;-49
2022/09/03 14:26:51;;;;;;;;;;;;;;;22.79;47.36;95459.66;10237564;28;2422;-46
2022/09/03 14:32:10;;;;;;;;;;;;;;;22.76;47.50;95526.28;10241561;28;3343;-46
2022/09/03 14:37:13;;;;;;;;;;;;;;;22.78;47.15;95545.28;10241144;28;3437;-44
2022/09/03 14:42:20;;;;;;;;;;;;;;;22.81;47.35;95563.22;10260313;28;3331;-45
2022/09/03 14:47:20;;;;;;;;;;;;;;;22.80;47.05;95580.91;10238965;28;3444;-46
2022/09/03 14:52:36;;;;;;;;;;;;;;;22.83;47.08;95568.97;10237202;28;3254;-46
2022/09/03 14:57:56;;;;;;;;;;;;;;;22.80;47.49;95582.75;10241599;28;3285;-45
2022/09/03 15:03:29;;;;;;;;;;;;;;;22.82;47.00;95576.13;10212853;28;3402;-45
2022/09/03 15:08:34;;;;;;;;;;;;;;;22.81;47.37;95627.41;10234941;28;3337;-46
2022/09/03 15:13:48;;;;;;;;;;;;;;;22.84;46.76;95605.69;10250478;28;2435;-45
2022/09/03 15:18:52;;;;;;;;;;;;;;;22.84;46.75;95563.41;10253475;28;3395;-47
2022/09/03 15:23:59;;;;;;;;;;;;;;;22.82;47.04;95556.81;10247172;28;3654;-47
2022/09/03 15:29:09;;;;;;;;;;;;;;;22.78;47.15;95542.63;10244754;28;3404;-43
2022/09/03 15:34:10;;;;;;;;;;;;;;;22.78;46.94;95571.69;10273976;28;3580;-46
2022/09/03 15:39:17;;;;;;;;;;;;;;;22.78;46.92;95584.91;10269563;28;3409;-43
2022/09/03 15:44:18;;;;;;;;;;;;;;;22.76;47.16;95579.13;10256288;28;3503;-43
2022/09/03 15:49:23;;;;;;;;;;;;;;;22.76;47.28;95587.84;10258051;28;2613;-45
2022/09/03 15:54:45;;;;;;;;;;;;;;;22.75;47.25;95588.91;10267719;28;2540;-44
2022/09/03 15:59:48;;;;;;;;;;;;;;;22.73;47.45;95585.78;10268869;28;3536;-44
2022/09/03 16:05:05;;;;;;;;;;;;;;;22.73;47.61;95587.66;10254410;28;2697;-46
2022/09/03 16:10:07;;;;;;;;;;;;;;;22.74;47.98;95582.06;10268342;28;3328;-45
2022/09/03 16:15:14;;;;;;;;;;;;;;;22.76;48.12;95584.41;10261990;28;3389;-46
2022/09/03 16:20:20;;;;;;;;;;;;;;;22.75;48.33;95573.06;10251395;28;3304;-47
2022/09/03 16:25:27;;;;;;;;;;;;;;;22.81;48.20;95579.06;10257409;28;3406;-44
2022/09/03 16:30:36;;;;;;;;;;;;;;;22.79;48.19;95565.34;10258873;28;3319;-45
2022/09/03 16:35:45;;;;;;;;;;;;;;;22.75;48.67;95567.78;10258257;28;2505;-44
2022/09/03 16:40:48;;;;;;;;;;;;;;;22.75;48.52;95565.13;10261642;28;2478;-46
2022/09/03 16:45:49;;;;;;;;;;;;;;;22.75;48.76;95551.16;10260311;28;3265;-45
2022/09/03 16:50:56;;;;;;;;;;;;;;;22.73;48.62;95554.06;10247038;28;3338;-45
2022/09/03 16:56:00;;;;;;;;;;;;;;;22.74;48.83;95554.88;10257530;28;3362;-45
2022/09/03 17:01:00;;;;;;;;;;;;;;;22.73;48.90;95540.09;10241576;28;3441;-46
2022/09/03 17:06:06;;;;;;;;;;;;;;;22.73;48.61;95543.50;10244980;28;3294;-44
2022/09/03 17:11:14;;;;;;;;;;;;;;;22.73;48.60;95553.31;10241674;28;3243;-46
2022/09/03 17:16:27;;;;;;;;;;;;;;;22.73;48.94;95553.31;10243205;28;3340;-46
2022/09/03 17:21:46;;;;;;;;;;;;;;;22.73;48.57;95548.03;10244368;28;3302;-48
2022/09/03 17:26:49;;;;;;;;;;;;;;;22.72;48.66;95557.00;10248439;28;2509;-45
2022/09/03 17:31:56;;;;;;;;;;;;;;;22.72;48.63;95551.72;10240093;28;3369;-44
2022/09/03 17:37:15;;;;;;;;;;;;;;;22.72;48.82;95551.72;10238794;28;2453;-45
2022/09/03 17:42:27;;;;;;;;;;;;;;;22.72;48.60;95551.72;10243777;28;3281;-45
2022/09/03 17:47:34;;;;;;;;;;;;;;;22.70;48.65;95549.38;10241858;28;3336;-46
2022/09/03 17:52:34;;;;;;;;;;;;;;;22.70;48.56;95554.66;10242366;28;3397;-44
2022/09/03 17:57:38;;;;;;;;;;;;;;;22.69;48.42;95557.63;10242359;28;3390;-47
2022/09/03 18:02:42;;;;;;;;;;;;;;;22.69;48.49;95562.91;10254133;28;3295;-44
2022/09/03 18:07:48;;;;;;;;;;;;;;;22.67;48.56;95569.25;10255025;28;3289;-45
2022/09/03 18:12:59;;;;;;;;;;;;;;;22.67;48.42;95570.31;10254425;28;3325;-46
2022/09/03 18:18:17;;;;;;;;;;;;;;;22.67;48.78;95579.03;10255930;28;3384;-46
2022/09/03 20:11:41;;;;;;;;;;;;;;;22.60;48.55;95674.53;10245939;28;3319;-47
2022/09/03 20:17:04;;;;;;;;;;;;;;;22.62;48.62;95671.59;10262406;28;3346;-46
2022/09/03 20:22:11;;;;;;;;;;;;;;;22.60;48.55;95676.38;10249170;28;3482;-44
2022/09/03 20:27:18;;;;;;;;;;;;;;;22.60;48.41;95681.66;10261125;28;3299;-49
2022/09/03 20:32:21;;;;;;;;;;;;;;;22.59;48.60;95686.16;10257980;28;3313;-43
2022/09/03 20:37:23;;;;;;;;;;;;;;;22.59;48.22;95680.06;10260556;28;2530;-48
2022/09/03 20:42:27;;;;;;;;;;;;;;;22.59;48.36;95686.16;10244423;28;3351;-47
2022/09/03 20:47:47;;;;;;;;;;;;;;;22.60;48.36;95692.22;10247175;28;3439;-45
2022/09/03 20:52:47;;;;;;;;;;;;;;;22.60;48.38;95693.03;10242229;28;3306;-46
2022/09/03 20:57:59;;;;;;;;;;;;;;;22.58;48.30;95692.53;10246632;28;3325;-44
2022/09/03 21:03:14;;;;;;;;;;;;;;;22.57;48.49;95695.41;10241734;28;2616;-44
2022/09/03 21:08:33;;;;;;;;;;;;;;;22.58;48.48;95691.72;10244628;28;3266;-44
2022/09/03 21:13:39;;;;;;;;;;;;;;;22.59;48.40;95701.22;10238922;28;2485;-46
2022/09/03 21:18:45;;;;;;;;;;;;;;;22.58;48.07;95705.72;10245614;28;3266;-45
2022/09/03 21:23:47;;;;;;;;;;;;;;;22.56;48.42;95699.94;10239512;28;3349;-44
2022/09/03 21:28:57;;;;;;;;;;;;;;;22.58;47.97;95700.44;10240929;28;2463;-46
2022/09/03 21:34:00;;;;;;;;;;;;;;;22.56;48.36;95699.94;10245886;28;3298;-46
2022/09/03 21:39:33;;;;;;;;;;;;;;;22.56;48.22;95707.84;10259463;28;2482;-46
2022/09/03 21:44:39;;;;;;;;;;;;;;;22.57;48.26;95709.41;10219271;28;3313;-47
2022/09/03 21:49:51;;;;;;;;;;;;;;;22.55;48.29;95708.13;10245403;28;2633;-46
2022/09/03 21:54:52;;;;;;;;;;;;;;;22.55;48.20;95710.75;10242729;28;3318;-47
2022/09/03 22:00:04;;;;;;;;;;;;;;;22.55;48.25;95705.47;10243867;28;3298;-46
2022/09/03 22:05:06;;;;;;;;;;;;;;;22.54;48.13;95715.28;10241353;28;2826;-45
2022/09/03 22:10:12;;;;;;;;;;;;;;;22.54;48.16;95704.72;10240784;28;3330;-44
2022/09/03 22:15:12;;;;;;;;;;;;;;;22.55;48.18;95708.91;10240976;28;2455;-44
2022/09/03 22:20:14;;;;;;;;;;;;;;;22.54;48.16;95702.06;10256757;28;2669;-44
2022/09/03 22:25:16;;;;;;;;;;;;;;;22.55;47.80;95705.47;10242407;28;3332;-46
2022/09/03 22:30:20;;;;;;;;;;;;;;;22.56;47.98;95712.34;10246444;28;3242;-45
2022/09/03 22:35:38;;;;;;;;;;;;;;;22.55;47.84;95714.19;10242551;28;3317;-43
2022/09/03 22:40:52;;;;;;;;;;;;;;;22.54;48.00;95710.00;10235188;28;2535;-44
2022/09/03 22:45:57;;;;;;;;;;;;;;;22.53;47.96;95705.75;10256096;28;2408;-46
2022/09/03 22:51:02;;;;;;;;;;;;;;;22.56;47.94;95709.69;10255804;28;3363;-47
2022/09/03 22:56:08;;;;;;;;;;;;;;;22.55;47.86;95710.75;10243385;28;3361;-48
2022/09/03 23:01:11;;;;;;;;;;;;;;;22.56;47.79;95715.78;10242416;28;3257;-48
2022/09/03 23:06:49;;;;;;;;;;;;;;;22.57;48.02;95706.75;10255584;28;2458;-46
2022/09/03 23:11:50;;;;;;;;;;;;;;;22.56;47.80;95707.84;10217538;28;3535;-45
2022/09/03 23:16:55;;;;;;;;;;;;;;;22.56;47.83;95710.50;10258383;28;2451;-44
2022/09/03 23:21:56;;;;;;;;;;;;;;;22.57;47.66;95708.59;10254005;28;3427;-47
2022/09/03 23:26:56;;;;;;;;;;;;;;;22.54;47.93;95710.00;10245228;28;2602;-44
2022/09/03 23:31:56;;;;;;;;;;;;;;;22.55;47.60;95708.13;10244513;28;3333;-45
2022/09/03 23:37:18;;;;;;;;;;;;;;;22.53;47.87;95703.13;10247831;28;3347;-46
2022/09/03 23:42:19;;;;;;;;;;;;;;;22.54;47.86;95709.19;10244252;28;3456;-45
2022/09/03 23:47:38;;;;;;;;;;;;;;;22.55;47.75;95708.13;10261588;28;3279;-47
2022/09/03 23:52:45;;;;;;;;;;;;;;;22.54;47.60;95717.91;10245506;28;3324;-45
2022/09/03 23:57:53;;;;;;;;;;;;;;;22.55;47.79;95718.69;10249233;28;3329;-46
